createdAt,value
2018-09-09T00:00:12.396Z,17.00
2018-09-09T00:02:41.647Z,17.00
2018-09-09T00:05:10.897Z,17.00
2018-09-09T00:07:41.236Z,16.90
2018-09-09T00:10:10.517Z,16.80
2018-09-09T00:12:39.737Z,16.80
2018-09-09T00:15:08.977Z,16.70
2018-09-09T00:17:38.237Z,16.80
2018-09-09T00:20:07.500Z,16.70
2018-09-09T00:22:36.776Z,16.80
2018-09-09T00:25:06.345Z,16.60
2018-09-09T00:27:35.617Z,16.60
2018-09-09T00:30:04.936Z,16.50
2018-09-09T00:32:34.257Z,16.50
2018-09-09T00:35:03.637Z,16.40
2018-09-09T00:37:32.873Z,16.30
2018-09-09T00:40:02.836Z,16.30
2018-09-09T00:42:32.019Z,16.30
2018-09-09T00:45:01.315Z,16.20
2018-09-09T00:47:30.612Z,16.30
2018-09-09T00:50:05.237Z,16.20
2018-09-09T00:52:39.916Z,16.20
2018-09-09T00:55:09.198Z,16.30
2018-09-09T00:57:38.457Z,16.30
2018-09-09T01:00:07.877Z,16.30
2018-09-09T01:02:37.216Z,16.40
2018-09-09T01:05:06.553Z,16.30
2018-09-09T01:07:35.777Z,16.20
2018-09-09T01:10:05.177Z,16.20
2018-09-09T01:12:34.596Z,16.10
2018-09-09T01:15:03.936Z,16.10
2018-09-09T01:17:33.219Z,16.00
2018-09-09T01:20:02.517Z,16.00
2018-09-09T01:22:31.736Z,16.00
2018-09-09T01:25:01.016Z,16.00
2018-09-09T01:27:33.559Z,15.90
2018-09-09T01:30:03.039Z,15.90
2018-09-09T01:32:32.360Z,15.90
2018-09-09T01:35:01.660Z,15.90
2018-09-09T01:37:30.910Z,15.80
2018-09-09T01:40:00.179Z,15.80
2018-09-09T01:42:29.479Z,15.80
2018-09-09T01:44:58.699Z,15.70
2018-09-09T01:47:27.999Z,15.70
2018-09-09T01:49:57.260Z,15.70
2018-09-09T01:52:26.699Z,15.70
2018-09-09T01:54:55.920Z,15.70
2018-09-09T01:57:25.240Z,15.60
2018-09-09T01:59:54.539Z,15.70
2018-09-09T02:02:23.800Z,15.60
2018-09-09T02:04:53.323Z,15.60
2018-09-09T02:07:22.599Z,15.60
2018-09-09T02:09:51.859Z,15.60
2018-09-09T02:12:21.159Z,15.60
2018-09-09T02:14:50.339Z,15.60
2018-09-09T02:17:19.670Z,15.60
2018-09-09T02:19:48.999Z,15.50
2018-09-09T02:22:18.279Z,15.50
2018-09-09T02:24:47.561Z,15.50
2018-09-09T02:27:16.919Z,15.50
2018-09-09T02:29:46.119Z,15.40
2018-09-09T02:32:15.279Z,15.40
2018-09-09T02:34:44.599Z,15.40
2018-09-09T02:37:13.845Z,15.50
2018-09-09T02:39:43.559Z,15.50
2018-09-09T02:42:12.904Z,15.40
2018-09-09T02:44:42.200Z,15.40
2018-09-09T02:47:11.579Z,15.50
2018-09-09T02:49:41.160Z,15.50
2018-09-09T02:52:10.419Z,15.50
2018-09-09T02:54:39.689Z,15.50
2018-09-09T02:57:09.259Z,15.50
2018-09-09T02:59:38.579Z,15.50
2018-09-09T03:02:07.771Z,15.40
2018-09-09T03:04:36.815Z,15.50
2018-09-09T03:07:06.119Z,15.60
2018-09-09T03:09:35.358Z,15.70
2018-09-09T03:12:04.631Z,15.70
2018-09-09T03:14:33.918Z,15.60
2018-09-09T03:17:03.178Z,15.50
2018-09-09T03:19:32.439Z,15.50
2018-09-09T03:22:01.739Z,15.60
2018-09-09T03:24:30.959Z,15.50
2018-09-09T03:27:00.318Z,15.50
2018-09-09T03:29:29.479Z,15.40
2018-09-09T03:31:58.699Z,15.40
2018-09-09T03:34:27.939Z,15.40
2018-09-09T03:36:57.239Z,15.50
2018-09-09T03:39:26.519Z,15.80
2018-09-09T03:41:55.940Z,15.60
2018-09-09T03:44:25.282Z,15.70
2018-09-09T03:46:54.558Z,15.70
2018-09-09T03:49:23.861Z,15.70
2018-09-09T03:51:53.120Z,15.70
2018-09-09T03:54:22.519Z,15.60
2018-09-09T03:56:51.819Z,15.50
2018-09-09T03:59:21.081Z,15.60
2018-09-09T04:01:50.358Z,15.70
2018-09-09T04:04:20.079Z,15.70
2018-09-09T04:06:49.359Z,15.60
2018-09-09T04:09:18.679Z,15.50
2018-09-09T04:11:47.979Z,15.60
2018-09-09T04:14:17.179Z,15.60
2018-09-09T04:16:46.579Z,15.40
2018-09-09T04:19:16.119Z,15.30
2018-09-09T04:21:50.232Z,15.20
2018-09-09T04:24:21.320Z,15.20
2018-09-09T04:26:50.581Z,15.10
2018-09-09T04:29:19.943Z,15.20
2018-09-09T04:31:49.160Z,15.20
2018-09-09T04:34:18.359Z,15.20
2018-09-09T04:36:47.669Z,15.20
2018-09-09T04:39:16.939Z,15.10
2018-09-09T04:41:46.259Z,15.10
2018-09-09T04:44:15.547Z,15.10
2018-09-09T04:46:44.799Z,15.30
2018-09-09T04:49:14.119Z,15.20
2018-09-09T04:51:43.422Z,15.30
2018-09-09T04:54:12.639Z,15.30
2018-09-09T04:56:41.939Z,15.40
2018-09-09T04:59:11.401Z,15.40
2018-09-09T05:01:40.700Z,15.60
2018-09-09T05:04:10.526Z,15.90
2018-09-09T05:06:39.780Z,16.30
2018-09-09T05:09:09.319Z,16.50
2018-09-09T05:11:38.527Z,16.90
2018-09-09T05:14:08.001Z,17.10
2018-09-09T05:16:37.220Z,17.20
2018-09-09T05:19:06.639Z,17.10
2018-09-09T05:21:35.919Z,17.10
2018-09-09T05:24:05.186Z,16.90
2018-09-09T05:26:34.539Z,16.90
2018-09-09T05:29:03.839Z,17.00
2018-09-09T05:31:33.179Z,17.70
2018-09-09T05:34:02.459Z,18.60
2018-09-09T05:36:31.699Z,19.40
2018-09-09T05:39:00.979Z,20.00
2018-09-09T05:41:30.319Z,20.50
2018-09-09T05:43:59.559Z,20.90
2018-09-09T05:46:28.879Z,21.10
2018-09-09T05:48:58.239Z,21.20
2018-09-09T05:51:27.459Z,20.40
2018-09-09T05:53:56.685Z,19.30
2018-09-09T05:56:26.000Z,18.80
2018-09-09T05:58:55.646Z,18.70
2018-09-09T06:01:25.000Z,18.80
2018-09-09T06:03:54.075Z,18.70
2018-09-09T06:06:23.420Z,18.60
2018-09-09T06:08:52.619Z,18.50
2018-09-09T06:11:21.939Z,18.60
2018-09-09T06:13:51.254Z,18.60
2018-09-09T06:16:20.559Z,18.80
2018-09-09T06:18:49.715Z,18.80
2018-09-09T06:21:19.003Z,18.80
2018-09-09T06:23:48.299Z,18.80
2018-09-09T06:26:17.539Z,18.60
2018-09-09T06:28:46.840Z,18.60
2018-09-09T06:31:16.379Z,18.80
2018-09-09T06:33:45.730Z,18.90
2018-09-09T06:36:15.539Z,19.00
2018-09-09T06:38:45.260Z,19.20
2018-09-09T06:41:14.486Z,19.40
2018-09-09T06:43:43.799Z,19.50
2018-09-09T06:46:13.101Z,19.60
2018-09-09T06:48:42.413Z,19.70
2018-09-09T06:51:11.764Z,19.80
2018-09-09T06:53:40.832Z,20.10
2018-09-09T06:56:14.000Z,20.10
2018-09-09T06:58:44.104Z,19.90
2018-09-09T07:01:13.924Z,20.00
2018-09-09T07:03:43.298Z,20.00
2018-09-09T07:06:12.539Z,20.30
2018-09-09T07:08:41.998Z,20.20
2018-09-09T07:11:12.075Z,20.50
2018-09-09T07:13:41.398Z,20.70
2018-09-09T07:16:10.719Z,20.60
2018-09-09T07:18:39.954Z,20.90
2018-09-09T07:21:09.201Z,21.10
2018-09-09T07:23:38.389Z,21.00
2018-09-09T07:26:14.106Z,21.10
2018-09-09T07:28:43.527Z,21.30
2018-09-09T07:31:12.849Z,21.50
2018-09-09T07:33:42.046Z,21.60
2018-09-09T07:36:11.226Z,21.80
2018-09-09T07:38:40.523Z,21.80
2018-09-09T07:41:09.819Z,22.00
2018-09-09T07:43:39.420Z,22.30
2018-09-09T07:46:08.920Z,22.30
2018-09-09T07:48:38.299Z,22.50
2018-09-09T07:51:07.980Z,22.70
2018-09-09T07:53:37.320Z,22.90
2018-09-09T07:56:07.040Z,23.00
2018-09-09T07:58:36.756Z,23.30
2018-09-09T08:01:06.262Z,23.40
2018-09-09T13:54:00.734Z,28.70
2018-09-09T13:56:31.205Z,28.90
2018-09-09T13:59:01.511Z,29.10
2018-09-09T14:01:30.944Z,29.20
2018-09-09T14:04:00.283Z,29.20
2018-09-09T14:06:29.654Z,28.80
2018-09-09T14:08:58.980Z,28.90
2018-09-09T14:11:28.356Z,29.30
2018-09-09T14:13:57.674Z,29.30
2018-09-09T14:16:27.165Z,28.80
2018-09-09T14:18:56.457Z,29.00
2018-09-09T14:21:25.838Z,29.20
2018-09-09T14:23:55.258Z,29.10
2018-09-09T14:26:24.681Z,28.80
2018-09-09T14:28:54.078Z,28.50
2018-09-09T14:31:23.438Z,28.40
2018-09-09T14:33:52.918Z,28.10
2018-09-09T14:36:22.298Z,27.90
2018-09-09T14:38:51.709Z,28.20
2018-09-09T14:41:21.127Z,28.20
2018-09-09T14:43:50.468Z,27.90
2018-09-09T14:46:20.019Z,28.00
2018-09-09T14:48:49.565Z,28.00
2018-09-09T14:51:18.870Z,27.80
2018-09-09T14:53:48.522Z,27.90
2018-09-09T14:56:17.910Z,28.00
2018-09-09T14:58:47.307Z,28.20
2018-09-09T15:01:16.727Z,28.00
2018-09-09T15:03:46.386Z,28.00
2018-09-09T15:06:15.762Z,27.90
2018-09-09T15:08:45.387Z,27.70
2018-09-09T15:11:14.756Z,27.90
2018-09-09T15:13:44.039Z,27.50
2018-09-09T15:19:17.305Z,27.40
2018-09-09T15:21:46.824Z,27.60
2018-09-09T15:24:16.295Z,27.70
2018-09-09T15:26:45.750Z,27.60
2018-09-09T15:29:15.156Z,27.60
2018-09-09T15:31:44.456Z,27.80
2018-09-09T15:34:19.773Z,28.00
2018-09-09T15:36:56.475Z,28.30
2018-09-09T15:39:25.835Z,28.20
2018-09-09T15:41:55.236Z,28.40
2018-09-09T15:44:24.916Z,28.60
2018-09-09T15:46:54.319Z,28.90
2018-09-09T15:49:23.811Z,29.00
2018-09-09T15:51:53.257Z,29.20
2018-09-09T15:57:08.371Z,29.30
2018-09-09T15:59:39.271Z,29.30
2018-09-09T16:02:09.597Z,29.30
2018-09-09T16:04:40.538Z,29.30
2018-09-09T16:07:38.624Z,29.30
2018-09-09T16:13:20.519Z,29.50
2018-09-09T16:16:07.113Z,29.40
2018-09-09T16:18:40.555Z,29.10
2018-09-09T16:21:11.465Z,29.20
2018-09-09T16:23:41.928Z,28.80
2018-09-09T16:26:14.021Z,28.80
2018-09-09T16:28:46.550Z,29.00
2018-09-09T16:31:17.606Z,28.50
2018-09-09T16:33:48.362Z,28.60
2018-09-09T16:36:18.446Z,28.60
2018-09-09T16:38:49.172Z,28.50
2018-09-09T16:41:19.818Z,28.10
2018-09-09T16:43:50.904Z,28.00
2018-09-09T16:46:21.205Z,27.90
2018-09-09T16:48:51.245Z,27.80
2018-09-09T16:51:21.079Z,27.80
2018-09-09T16:53:51.240Z,27.60
2018-09-09T16:56:21.580Z,27.50
2018-09-09T16:58:51.740Z,27.30
2018-09-09T17:01:54.502Z,27.10
2018-09-09T17:04:25.839Z,26.80
2018-09-09T17:06:57.099Z,26.50
2018-09-09T17:09:27.659Z,26.20
2018-09-09T17:11:58.641Z,25.90
2018-09-09T17:14:29.081Z,25.70
2018-09-09T17:17:16.821Z,25.50
2018-09-09T17:19:51.684Z,25.10
2018-09-09T17:22:25.661Z,24.80
2018-09-09T17:24:57.442Z,24.50
2018-09-09T17:27:31.097Z,24.30
2018-09-09T17:30:02.844Z,24.00
2018-09-09T17:32:40.585Z,23.80
2018-09-09T17:35:26.108Z,23.70
2018-09-09T17:38:10.828Z,23.50
2018-09-09T17:40:41.185Z,23.50
2018-09-09T17:43:11.157Z,23.30
2018-09-09T17:45:40.484Z,23.30
2018-09-09T17:48:10.725Z,23.20
2018-09-09T17:50:40.405Z,23.10
2018-09-09T17:53:10.105Z,23.00
2018-09-09T17:55:39.576Z,23.10
2018-09-09T17:58:14.545Z,23.00
2018-09-09T18:00:45.578Z,22.70
2018-09-09T18:03:15.892Z,22.70
2018-09-09T18:05:45.292Z,22.70
2018-09-09T18:08:16.430Z,22.60
2018-09-09T18:10:45.822Z,22.50
2018-09-09T18:13:16.049Z,22.40
2018-09-09T18:15:45.816Z,22.30
2018-09-09T18:18:15.194Z,22.30
2018-09-09T18:20:44.514Z,22.20
2018-09-09T18:23:13.836Z,22.00
2018-09-09T18:25:44.136Z,22.00
2018-09-09T18:28:13.393Z,21.80
2018-09-09T18:30:42.856Z,21.70
2018-09-09T18:33:12.175Z,21.60
2018-09-09T18:35:41.549Z,21.60
2018-09-09T18:38:11.016Z,21.60
2018-09-09T18:40:40.328Z,21.50
2018-09-09T18:43:09.896Z,21.50
2018-09-09T18:45:39.376Z,21.40
2018-09-09T18:48:09.123Z,21.30
2018-09-09T18:50:38.716Z,21.20
2018-09-09T18:53:08.218Z,21.10
2018-09-09T18:55:38.386Z,21.10
2018-09-09T19:00:43.633Z,21.00
2018-09-09T19:03:13.052Z,20.90
2018-09-09T19:05:42.372Z,20.70
2018-09-09T19:08:11.739Z,20.60
2018-09-09T19:10:40.994Z,20.40
2018-09-09T19:13:10.881Z,20.30
2018-09-09T19:15:40.219Z,20.30
2018-09-09T19:18:10.159Z,20.20
2018-09-09T19:20:40.199Z,20.20
2018-09-09T19:23:09.699Z,20.10
2018-09-09T19:25:39.462Z,20.10
2018-09-09T19:28:09.079Z,20.00
2018-09-09T19:30:38.512Z,19.90
2018-09-09T19:33:09.292Z,19.80
2018-09-09T19:35:38.491Z,19.70
2018-09-09T19:38:09.045Z,19.60
2018-09-09T19:40:38.339Z,19.60
2018-09-09T19:43:07.613Z,19.50
2018-09-09T19:45:37.294Z,19.50
2018-09-09T19:48:06.682Z,19.30
2018-09-09T19:50:36.211Z,19.40
2018-09-09T19:53:05.639Z,19.40
2018-09-09T19:55:34.992Z,19.40
2018-09-09T19:58:05.072Z,19.40
2018-09-09T20:00:34.532Z,19.30
2018-09-09T20:03:05.296Z,19.20
2018-09-09T20:05:35.240Z,19.20
2018-09-09T20:08:04.912Z,19.10
2018-09-09T20:10:34.172Z,19.10
2018-09-09T20:13:03.455Z,19.20
2018-09-09T20:15:32.771Z,19.10
2018-09-09T20:18:02.055Z,19.00
2018-09-09T20:20:31.532Z,19.00
2018-09-09T20:23:00.871Z,18.90
2018-09-09T20:25:30.292Z,18.90
2018-09-09T20:27:59.532Z,18.70
2018-09-09T20:30:28.872Z,18.80
2018-09-09T20:32:58.054Z,18.70
2018-09-09T20:35:27.352Z,18.70
2018-09-09T20:37:56.671Z,18.70
2018-09-09T20:40:26.000Z,18.60
2018-09-09T20:42:55.751Z,18.50
2018-09-09T20:45:24.975Z,18.50
2018-09-09T20:47:54.186Z,18.40
2018-09-09T20:50:25.312Z,18.50
2018-09-09T20:52:54.591Z,18.50
2018-09-09T20:55:23.892Z,18.50
2018-09-09T20:57:53.331Z,18.40
2018-09-09T21:00:22.660Z,18.40
2018-09-09T21:02:51.911Z,18.50
2018-09-09T21:05:21.492Z,18.60
2018-09-09T21:07:50.891Z,18.60
2018-09-09T21:10:20.132Z,18.60
2018-09-09T21:12:49.492Z,18.60
2018-09-09T21:15:18.691Z,18.50
2018-09-09T21:17:48.013Z,18.50
2018-09-09T21:20:17.332Z,18.40
2018-09-09T21:22:46.611Z,18.30
2018-09-09T21:25:15.811Z,18.30
2018-09-09T21:27:45.431Z,18.20
2018-09-09T21:30:14.591Z,18.20
2018-09-09T21:32:43.893Z,18.00
2018-09-09T21:35:13.177Z,18.00
2018-09-09T21:37:42.471Z,17.90
2018-09-09T21:40:11.631Z,17.90
2018-09-09T21:42:40.936Z,17.80
2018-09-09T21:45:10.272Z,17.70
2018-09-09T21:47:39.771Z,17.60
2018-09-09T21:50:09.145Z,17.60
2018-09-09T21:52:38.509Z,17.60
2018-09-09T21:55:07.912Z,17.50
2018-09-09T21:57:37.246Z,17.50
2018-09-09T22:00:10.619Z,17.60
2018-09-09T22:02:41.558Z,17.60
2018-09-09T22:05:11.390Z,17.70
2018-09-09T22:07:40.698Z,17.70
2018-09-09T22:10:10.020Z,17.70
2018-09-09T22:12:39.438Z,17.70
2018-09-09T22:15:08.819Z,17.60
2018-09-09T22:17:38.139Z,17.60
2018-09-09T22:20:07.822Z,17.50
2018-09-09T22:22:37.039Z,17.50
2018-09-09T22:25:06.398Z,17.50
2018-09-09T22:27:35.624Z,17.40
2018-09-09T22:30:06.118Z,17.40
2018-09-09T22:32:35.390Z,17.30
2018-09-09T22:35:04.658Z,17.20
2018-09-09T22:37:33.972Z,17.20
2018-09-09T22:40:03.358Z,17.20
2018-09-09T22:42:32.557Z,17.30
2018-09-09T22:45:01.878Z,17.30
2018-09-09T22:47:31.378Z,17.20
2018-09-09T22:50:00.737Z,17.00
2018-09-09T22:52:30.266Z,16.90
2018-09-09T22:55:00.138Z,16.80
2018-09-09T22:57:29.397Z,16.80
2018-09-09T22:59:58.678Z,16.70
2018-09-09T23:02:28.262Z,16.70
2018-09-09T23:04:57.582Z,16.70
2018-09-09T23:07:26.942Z,16.60
2018-09-09T23:09:56.121Z,16.60
2018-09-09T23:12:25.362Z,16.50
2018-09-09T23:14:54.681Z,16.50
2018-09-09T23:17:23.982Z,16.50
2018-09-09T23:19:53.302Z,16.50
2018-09-09T23:22:22.582Z,16.40
2018-09-09T23:24:51.878Z,16.40
2018-09-09T23:27:21.062Z,16.40
2018-09-09T23:29:50.382Z,16.60
2018-09-09T23:32:19.642Z,16.10
2018-09-09T23:34:48.946Z,16.10
2018-09-09T23:37:18.232Z,16.00
2018-09-09T23:39:47.561Z,15.90
2018-09-09T23:42:16.746Z,15.90
2018-09-09T23:44:46.017Z,16.00
2018-09-09T23:47:15.582Z,16.00
2018-09-09T23:49:45.681Z,16.10
2018-09-09T23:52:14.982Z,16.10
2018-09-09T23:54:45.003Z,16.00
2018-09-09T23:57:14.222Z,15.90
2018-09-09T23:59:43.442Z,15.90
